Time,TemperatureF,DewpointF,PressureIn,WindDirection,WindDirectionDegrees,WindSpeedMPH,WindSpeedGustMPH,Humidity,HourlyPrecipIn,Conditions,Clouds,dailyrainin,SoftwareType,DateUTC
2013-07-26 00:32:00,62.0,55.0,30.13,North,-999,-999.0,-999.0,77,0.00,,,0.00,,2013-07-26 04:32:00,
2013-07-26 00:53:00,62.0,55.0,30.13,North,-999,-999.0,-999.0,77,0.00,,,0.00,,2013-07-26 04:53:00,
2013-07-26 01:02:00,62.0,55.0,30.13,North,-999,-999.0,-999.0,77,0.00,,,0.00,,2013-07-26 05:02:00,
2013-07-26 01:12:00,62.0,55.0,30.13,North,-999,-999.0,-999.0,77,0.00,,,0.00,,2013-07-26 05:12:00,
2013-07-26 01:22:00,62.0,55.0,30.13,North,-999,-999.0,-999.0,77,0.00,,,0.00,,2013-07-26 05:22:00,
2013-07-26 09:52:00,64.0,59.0,30.10,North,-999,-999.0,-999.0,83,0.00,,,0.00,,2013-07-26 13:52:00,
2013-07-26 10:02:00,64.0,59.0,30.10,SSE,157,0.0,0.0,83,0.00,,,0.00,,2013-07-26 14:02:00,
2013-07-26 10:32:00,64.0,59.0,30.10,North,-999,-999.0,-999.0,83,0.00,,,0.00,,2013-07-26 14:32:00,
2013-07-26 10:43:00,64.0,59.0,30.10,North,-999,-999.0,-999.0,83,0.00,,,0.00,,2013-07-26 14:43:00,
2013-07-26 16:32:00,74.0,59.0,30.01,South,180,0.0,0.0,60,0.00,,,0.00,,2013-07-26 20:32:00,
2013-07-26 16:43:00,74.0,59.0,30.01,SSW,202,0.0,0.0,60,0.00,,,0.00,,2013-07-26 20:43:00,
2013-07-26 16:53:00,74.0,59.0,30.02,WSW,247,0.0,0.0,60,0.00,,,0.00,,2013-07-26 20:53:00,
2013-07-26 17:12:00,75.0,61.0,30.01,NNW,337,0.0,0.0,61,0.00,,,0.00,,2013-07-26 21:12:00,
2013-07-26 17:22:00,76.0,62.0,30.01,WSW,247,0.0,0.0,62,0.00,,,0.00,,2013-07-26 21:22:00,
2013-07-26 17:32:00,76.0,62.0,30.00,West,270,0.0,1.0,62,0.00,,,0.00,,2013-07-26 21:32:00,
2013-07-26 17:53:00,76.0,62.0,30.00,WSW,247,0.0,0.0,61,0.00,,,0.00,,2013-07-26 21:53:00,
2013-07-26 18:02:00,76.0,62.0,30.00,NW,315,0.0,0.0,61,0.00,,,0.00,,2013-07-26 22:02:00,
2013-07-26 18:22:00,76.0,62.0,30.00,NW,315,0.0,0.0,61,0.00,,,0.00,,2013-07-26 22:22:00,
2013-07-26 18:33:00,76.0,62.0,30.00,NW,315,0.0,0.0,61,0.00,,,0.00,,2013-07-26 22:33:00,
2013-07-26 19:02:00,75.0,61.0,29.99,ENE,67,0.0,0.0,62,0.00,,,0.00,,2013-07-26 23:02:00,
2013-07-26 19:32:00,75.0,62.0,29.99,North,-999,-999.0,-999.0,64,0.00,,,0.00,,2013-07-26 23:32:00,
2013-07-26 19:43:00,75.0,62.0,29.99,North,-999,-999.0,-999.0,64,0.00,,,0.00,,2013-07-26 23:43:00,
2013-07-26 19:53:00,75.0,62.0,29.99,North,-999,-999.0,-999.0,64,0.00,,,0.00,,2013-07-26 23:53:00,
2013-07-26 20:02:00,75.0,62.0,29.99,North,-999,-999.0,-999.0,64,0.00,,,0.00,,2013-07-27 00:02:00,
2013-07-26 20:12:00,75.0,62.0,29.99,North,-999,-999.0,-999.0,64,0.00,,,0.00,,2013-07-27 00:12:00,
2013-07-26 20:53:00,72.0,60.0,29.98,South,180,0.0,0.0,66,0.00,,,0.00,,2013-07-27 00:53:00,
2013-07-26 21:02:00,72.0,60.0,29.98,SW,225,0.0,0.0,66,0.00,,,0.00,,2013-07-27 01:02:00,
2013-07-26 21:12:00,72.0,60.0,29.98,West,270,0.0,0.0,67,0.00,,,0.00,,2013-07-27 01:12:00,
2013-07-26 21:22:00,72.0,61.0,29.97,West,270,0.0,0.0,68,0.00,,,0.00,,2013-07-27 01:22:00,
2013-07-26 21:32:00,72.0,61.0,29.97,West,270,0.0,0.0,68,0.00,,,0.00,,2013-07-27 01:32:00,
2013-07-26 21:43:00,71.0,60.0,29.97,SW,225,0.0,0.0,68,0.00,,,0.00,,2013-07-27 01:43:00,
2013-07-26 21:53:00,71.0,60.0,29.97,SW,225,0.0,0.0,68,0.00,,,0.00,,2013-07-27 01:53:00,
2013-07-26 22:02:00,71.0,61.0,29.97,SW,225,0.0,0.0,70,0.00,,,0.00,,2013-07-27 02:02:00,
2013-07-26 22:12:00,71.0,61.0,29.97,SW,225,0.0,0.0,70,0.00,,,0.00,,2013-07-27 02:12:00,
2013-07-26 22:22:00,71.0,61.0,29.97,North,-999,-999.0,-999.0,70,0.00,,,0.00,,2013-07-27 02:22:00,
2013-07-26 22:32:00,71.0,61.0,29.97,North,-999,-999.0,-999.0,70,0.00,,,0.00,,2013-07-27 02:32:00,
2013-07-26 22:43:00,71.0,61.0,29.97,North,-999,-999.0,-999.0,70,0.00,,,0.00,,2013-07-27 02:43:00,
2013-07-26 22:53:00,71.0,61.0,29.97,North,-999,-999.0,-999.0,70,0.00,,,0.00,,2013-07-27 02:53:00,
2013-07-26 23:22:00,70.0,60.0,29.97,North,-999,-999.0,-999.0,71,0.00,,,0.00,,2013-07-27 03:22:00,
2013-07-26 23:33:00,70.0,60.0,29.97,North,-999,-999.0,-999.0,71,0.00,,,0.00,,2013-07-27 03:33:00,
2013-07-26 23:44:00,70.0,60.0,29.97,North,-999,-999.0,-999.0,71,0.00,,,0.00,,2013-07-27 03:44:00,